MMTJ/TIJ METAR and TAF weather

Enter ICAO airport designator
Station Type Date Time Source
MMTJ METAR 2021/09/16 20:43 UTC NOAA

MMTJ 162043Z 28011KT 8SM SKC 22/15 A2990 RMK SLP131 57010 904 HZY


Station Type Date Time Source
MMTJ Decoded METAR 2021/09/16 20:43 UTC NOAA

Tijuana International Airport , Mexico (MMTJ) 32-33N 116-58W
Sep 16, 2021 - 04:43 PM EDT / 2021.09.16 2043 UTC
Wind: from the W (280 degrees) at 13 MPH (11 KT):0
Visibility: 8 mile(s):0
Sky conditions: clear
Temperature: 71 F (22 C)
Dew Point: 59 F (15 C)
Relative Humidity: 64%
Pressure (altimeter): 29.9 in. Hg (1012 hPa)
Pressure tendency: 0.03 inches (1.0 hPa) lower than three hours ago
ob: MMTJ 162043Z 28011KT 8SM SKC 22/15 A2990 RMK SLP131 57010 904 HZY
cycle: 20

Station Type Date Time Source
MMTJ TAF 2021/09/16 18:59 UTC NOAA

TAF MMTJ 161651Z 1618/1724 30010KT P6SM SKC TX23/1621Z TN17/1712Z
FM170500 30005KT 5SM HZ BKN015
FM170900 00000KT 5SM HZ OVC010
FM171600 30010KT P6SM SKC

Example: see airport list